Time;durP1;ratioP1;P1;durP2;ratioP2;P2;SDS_P1;SDS_P2;PMS_P1;PMS_P2;Temp;Humidity;BMP_temperature;BMP_pressure;BME280_temperature;BME280_humidity;BME280_pressure;Samples;Min_cycle;Max_cycle;Signal;HPM_P1;HPM_P2
2023/08/08 00:01:35;;;;;;;0.93;0.93;;;;;;;;;;4896037;28;20437;-71
2023/08/08 00:04:01;;;;;;;0.97;0.97;;;;;;;;;;4895880;28;20492;-66
2023/08/08 00:06:27;;;;;;;0.93;0.93;;;;;;;;;;4896199;28;20477;-67
2023/08/08 00:08:53;;;;;;;0.90;0.90;;;;;;;;;;4896193;28;20787;-67
2023/08/08 00:11:19;;;;;;;5.43;0.90;;;;;;;;;;4896511;28;20887;-68
2023/08/08 00:13:45;;;;;;;3.70;1.00;;;;;;;;;;4894410;28;20433;-66
2023/08/08 00:16:11;;;;;;;1.00;0.80;;;;;;;;;;4896360;28;20430;-68
2023/08/08 00:18:37;;;;;;;0.80;0.80;;;;;;;;;;4896187;28;20563;-68
2023/08/08 00:21:03;;;;;;;5.80;0.60;;;;;;;;;;4896474;29;20429;-68
2023/08/08 00:23:28;;;;;;;0.77;0.77;;;;;;;;;;4895991;28;20429;-66
2023/08/08 00:25:54;;;;;;;6.77;1.00;;;;;;;;;;4895524;28;20460;-67
2023/08/08 00:28:20;;;;;;;1.33;1.03;;;;;;;;;;4896116;28;20495;-67
2023/08/08 00:30:46;;;;;;;0.73;0.73;;;;;;;;;;4896040;28;20453;-67
2023/08/08 00:33:12;;;;;;;0.67;0.67;;;;;;;;;;4894605;28;20449;-66
2023/08/08 00:35:38;;;;;;;0.80;0.80;;;;;;;;;;4896128;29;20425;-67
2023/08/08 00:38:04;;;;;;;1.37;1.37;;;;;;;;;;4895949;28;20428;-68
2023/08/08 00:40:30;;;;;;;0.80;0.80;;;;;;;;;;4894238;29;20470;-66
2023/08/08 00:42:56;;;;;;;0.80;0.80;;;;;;;;;;4895792;28;20461;-67
2023/08/08 00:45:22;;;;;;;0.60;0.60;;;;;;;;;;4896027;28;20421;-68
2023/08/08 00:47:48;;;;;;;2.37;1.00;;;;;;;;;;4895146;28;20572;-66
2023/08/08 00:50:14;;;;;;;0.70;0.70;;;;;;;;;;4895960;28;20449;-68
2023/08/08 00:52:42;;;;;;;2.17;2.07;;;;;;;;;;4895596;28;20473;-68
2023/08/08 00:55:08;;;;;;;0.97;0.97;;;;;;;;;;4895523;28;20421;-69
2023/08/08 00:57:35;;;;;;;0.87;0.87;;;;;;;;;;4895561;28;20421;-67
2023/08/08 01:00:02;;;;;;;0.60;0.50;;;;;;;;;;4893976;28;20835;-69
2023/08/08 01:02:28;;;;;;;0.90;0.63;;;;;;;;;;4895376;29;20421;-68
2023/08/08 01:04:54;;;;;;;0.93;0.93;;;;;;;;;;4895810;28;20426;-71
2023/08/08 01:07:31;;;;;;;1.17;0.80;;;;;;;;;;4895691;29;20580;-68
2023/08/08 01:10:11;;;;;;;2.73;0.83;;;;;;;;;;4894862;28;20903;-70
2023/08/08 01:12:41;;;;;;;0.80;0.80;;;;;;;;;;4895284;29;20425;-67
2023/08/08 01:15:08;;;;;;;0.80;0.80;;;;;;;;;;4895626;28;20572;-69
2023/08/08 01:17:35;;;;;;;0.97;0.80;;;;;;;;;;4895327;29;20453;-70
2023/08/08 01:20:03;;;;;;;1.70;0.80;;;;;;;;;;4895193;29;20934;-69
2023/08/08 01:22:33;;;;;;;1.03;1.03;;;;;;;;;;4895034;28;20444;-66
2023/08/08 01:25:00;;;;;;;0.90;0.90;;;;;;;;;;4895051;29;20782;-68
2023/08/08 01:27:26;;;;;;;0.50;0.50;;;;;;;;;;4895461;28;20635;-70
2023/08/08 01:29:53;;;;;;;2.10;0.60;;;;;;;;;;4895085;29;20496;-70
2023/08/08 01:32:19;;;;;;;1.33;0.93;;;;;;;;;;4895340;28;20456;-70
2023/08/08 01:34:45;;;;;;;2.93;0.73;;;;;;;;;;4895134;29;20918;-69
2023/08/08 01:37:25;;;;;;;2.63;0.90;;;;;;;;;;4895226;28;20433;-68
2023/08/08 01:39:53;;;;;;;0.80;0.80;;;;;;;;;;4894976;29;20417;-68
2023/08/08 01:42:20;;;;;;;0.80;0.80;;;;;;;;;;4894941;29;20428;-71
2023/08/08 01:44:46;;;;;;;0.70;0.70;;;;;;;;;;4894674;28;20433;-67
2023/08/08 01:47:12;;;;;;;1.90;0.70;;;;;;;;;;4895101;28;20477;-69
2023/08/08 01:49:38;;;;;;;1.17;1.17;;;;;;;;;;4895118;28;20517;-70
2023/08/08 01:52:05;;;;;;;0.67;0.67;;;;;;;;;;4895143;28;20826;-70
2023/08/08 01:54:31;;;;;;;0.90;0.90;;;;;;;;;;4894338;28;20505;-71
2023/08/08 01:56:57;;;;;;;0.90;0.90;;;;;;;;;;4894767;28;20864;-69
2023/08/08 01:59:23;;;;;;;0.90;0.90;;;;;;;;;;4895019;28;20429;-70
2023/08/08 02:01:49;;;;;;;1.03;0.70;;;;;;;;;;4894874;29;20426;-70
2023/08/08 02:04:15;;;;;;;0.93;0.93;;;;;;;;;;4894272;28;20440;-68
2023/08/08 02:06:41;;;;;;;3.60;0.77;;;;;;;;;;4894429;28;20483;-68
2023/08/08 02:09:07;;;;;;;0.83;0.83;;;;;;;;;;4894651;28;20426;-68
2023/08/08 02:11:33;;;;;;;1.00;0.80;;;;;;;;;;4895981;29;20433;-70
2023/08/08 02:13:59;;;;;;;3.40;0.60;;;;;;;;;;4897851;29;20437;-69
2023/08/08 02:16:25;;;;;;;8.53;2.10;;;;;;;;;;4896954;28;20445;-69
2023/08/08 02:18:51;;;;;;;2.60;1.07;;;;;;;;;;4897940;29;20504;-68
2023/08/08 02:21:17;;;;;;;0.90;0.90;;;;;;;;;;4897827;28;20433;-69
2023/08/08 02:23:43;;;;;;;0.83;0.83;;;;;;;;;;4896534;28;20440;-67
2023/08/08 02:26:09;;;;;;;0.70;0.70;;;;;;;;;;4897876;28;20463;-70
2023/08/08 02:28:35;;;;;;;0.60;0.60;;;;;;;;;;4912308;28;20497;-70
2023/08/08 02:31:01;;;;;;;0.70;0.70;;;;;;;;;;4897829;28;20430;-70
2023/08/08 02:33:27;;;;;;;2.40;0.80;;;;;;;;;;4897416;29;20484;-69
2023/08/08 02:35:53;;;;;;;0.50;0.50;;;;;;;;;;4897304;28;20935;-70
2023/08/08 02:38:19;;;;;;;1.07;0.97;;;;;;;;;;4897750;28;20807;-70
2023/08/08 02:40:44;;;;;;;2.83;0.80;;;;;;;;;;4897072;28;20444;-69
2023/08/08 02:43:10;;;;;;;0.63;0.63;;;;;;;;;;4906148;29;20582;-71
2023/08/08 02:45:37;;;;;;;2.60;0.93;;;;;;;;;;4897718;29;20449;-72
2023/08/08 02:48:03;;;;;;;0.70;0.70;;;;;;;;;;4897596;28;20568;-70
2023/08/08 02:50:29;;;;;;;0.77;0.77;;;;;;;;;;4897589;28;20910;-71
2023/08/08 02:52:55;;;;;;;0.83;0.63;;;;;;;;;;4896858;28;20456;-70
2023/08/08 02:55:21;;;;;;;0.80;0.80;;;;;;;;;;4897195;29;20476;-70
2023/08/08 02:57:47;;;;;;;1.77;1.20;;;;;;;;;;4897558;28;20941;-70
2023/08/08 03:00:13;;;;;;;1.20;1.10;;;;;;;;;;4896135;29;20440;-69
2023/08/08 03:02:39;;;;;;;1.43;1.40;;;;;;;;;;4897079;29;20425;-67
2023/08/08 03:05:05;;;;;;;0.80;0.80;;;;;;;;;;4896983;29;20456;-68
2023/08/08 03:07:31;;;;;;;2.50;1.00;;;;;;;;;;4897276;28;20477;-68
2023/08/08 03:09:57;;;;;;;8.90;1.10;;;;;;;;;;4897063;28;20477;-67
2023/08/08 03:12:23;;;;;;;0.80;0.80;;;;;;;;;;4897206;28;20426;-66
2023/08/08 03:14:49;;;;;;;0.70;0.70;;;;;;;;;;4897009;28;20417;-68
2023/08/08 03:17:15;;;;;;;8.33;0.60;;;;;;;;;;4896719;28;20434;-67
2023/08/08 03:19:41;;;;;;;0.83;0.83;;;;;;;;;;4915369;29;20483;-69
2023/08/08 03:22:07;;;;;;;0.70;0.70;;;;;;;;;;4915680;29;20988;-67
2023/08/08 03:24:33;;;;;;;0.70;0.70;;;;;;;;;;4915278;29;20785;-68
2023/08/08 03:26:59;;;;;;;0.67;0.67;;;;;;;;;;4902538;29;20489;-68
2023/08/08 03:29:25;;;;;;;0.90;0.90;;;;;;;;;;4896979;28;20457;-66
2023/08/08 03:31:51;;;;;;;1.80;1.03;;;;;;;;;;4897056;28;20441;-68
2023/08/08 03:34:17;;;;;;;0.93;0.80;;;;;;;;;;4896556;28;20410;-67
2023/08/08 03:36:43;;;;;;;4.40;0.80;;;;;;;;;;4896672;29;20441;-69
2023/08/08 03:39:09;;;;;;;2.67;0.97;;;;;;;;;;4895275;28;20784;-67
2023/08/08 03:41:36;;;;;;;0.70;0.70;;;;;;;;;;4896882;28;20433;-66
2023/08/08 03:44:02;;;;;;;2.20;1.00;;;;;;;;;;4896439;28;20418;-69
2023/08/08 03:46:28;;;;;;;0.90;0.90;;;;;;;;;;4896756;28;20477;-70
2023/08/08 03:48:54;;;;;;;0.80;0.80;;;;;;;;;;4896459;29;20438;-70
2023/08/08 03:51:20;;;;;;;1.70;1.30;;;;;;;;;;4896618;29;20764;-70
2023/08/08 03:53:46;;;;;;;0.97;0.97;;;;;;;;;;4894768;28;20441;-70
2023/08/08 03:56:12;;;;;;;3.57;0.83;;;;;;;;;;4896650;29;20460;-70
2023/08/08 03:58:39;;;;;;;1.00;1.00;;;;;;;;;;4896564;28;20437;-70
2023/08/08 04:01:05;;;;;;;1.00;1.00;;;;;;;;;;4896253;28;20471;-67
2023/08/08 04:03:31;;;;;;;0.70;0.70;;;;;;;;;;4896021;28;20425;-66
2023/08/08 04:05:57;;;;;;;3.70;1.10;;;;;;;;;;4896563;28;20930;-66
2023/08/08 04:08:23;;;;;;;1.00;0.90;;;;;;;;;;4896145;29;20604;-66
2023/08/08 04:10:48;;;;;;;0.87;0.87;;;;;;;;;;4896516;29;20925;-67
2023/08/08 04:13:15;;;;;;;1.37;0.90;;;;;;;;;;4895770;28;20438;-70
2023/08/08 04:15:41;;;;;;;1.10;1.10;;;;;;;;;;4895891;28;20438;-67
2023/08/08 04:18:07;;;;;;;4.33;1.13;;;;;;;;;;4902085;28;20477;-68
2023/08/08 04:20:34;;;;;;;0.83;0.83;;;;;;;;;;4915202;29;20428;-66
2023/08/08 04:22:59;;;;;;;1.13;1.10;;;;;;;;;;4914736;29;20933;-68
2023/08/08 04:25:26;;;;;;;0.97;0.97;;;;;;;;;;4914431;29;20979;-70
2023/08/08 04:27:52;;;;;;;1.03;1.03;;;;;;;;;;4895960;29;20629;-71
2023/08/08 04:30:18;;;;;;;0.97;0.97;;;;;;;;;;4896150;28;20461;-72
2023/08/08 04:32:44;;;;;;;6.47;1.07;;;;;;;;;;4895824;28;20429;-70
2023/08/08 04:35:10;;;;;;;1.17;0.93;;;;;;;;;;4895222;28;21032;-70
2023/08/08 04:37:36;;;;;;;1.90;0.90;;;;;;;;;;4895970;28;20452;-68
2023/08/08 04:40:03;;;;;;;0.80;0.80;;;;;;;;;;4895381;28;20942;-71
2023/08/08 04:42:29;;;;;;;0.80;0.80;;;;;;;;;;4895593;28;20976;-68
2023/08/08 04:44:55;;;;;;;3.13;1.00;;;;;;;;;;4898257;28;20449;-66
2023/08/08 04:47:21;;;;;;;2.10;1.40;;;;;;;;;;4914727;29;20525;-66
2023/08/08 04:49:47;;;;;;;6.77;1.07;;;;;;;;;;4914647;29;20771;-65
2023/08/08 04:52:13;;;;;;;1.70;0.90;;;;;;;;;;4894180;28;20452;-67
2023/08/08 04:54:39;;;;;;;1.60;1.30;;;;;;;;;;4894221;28;20445;-65
2023/08/08 04:57:05;;;;;;;3.17;1.20;;;;;;;;;;4894568;28;20461;-65
2023/08/08 04:59:31;;;;;;;4.20;1.10;;;;;;;;;;4894942;28;20461;-65
2023/08/08 05:01:57;;;;;;;1.10;1.10;;;;;;;;;;4894574;28;20418;-66
2023/08/08 05:04:23;;;;;;;1.07;1.07;;;;;;;;;;4892978;29;20495;-65
2023/08/08 05:06:49;;;;;;;8.90;1.10;;;;;;;;;;4894452;28;20473;-68
2023/08/08 05:09:15;;;;;;;1.13;1.03;;;;;;;;;;4891321;29;20492;-66
2023/08/08 05:11:41;;;;;;;3.13;1.20;;;;;;;;;;4893522;28;20817;-66
2023/08/08 05:14:07;;;;;;;0.97;0.97;;;;;;;;;;4894858;28;20434;-65
2023/08/08 05:16:33;;;;;;;5.00;0.70;;;;;;;;;;4894583;28;20497;-68
2023/08/08 05:18:59;;;;;;;0.90;0.90;;;;;;;;;;4894582;28;20520;-68
2023/08/08 05:21:25;;;;;;;1.33;1.00;;;;;;;;;;4893082;28;20433;-67
2023/08/08 05:23:51;;;;;;;3.33;0.97;;;;;;;;;;4894282;28;21025;-67
2023/08/08 05:26:17;;;;;;;0.83;0.83;;;;;;;;;;4894275;28;20521;-69
2023/08/08 05:28:43;;;;;;;0.90;0.90;;;;;;;;;;4894813;28;20973;-66
2023/08/08 05:31:10;;;;;;;1.13;1.10;;;;;;;;;;4894641;28;20425;-66
2023/08/08 05:33:36;;;;;;;1.20;1.10;;;;;;;;;;4894251;28;20442;-68
2023/08/08 05:36:02;;;;;;;1.40;1.30;;;;;;;;;;4894317;28;20437;-67
2023/08/08 05:38:28;;;;;;;5.30;1.23;;;;;;;;;;4893991;29;20568;-66
2023/08/08 05:40:54;;;;;;;0.67;0.67;;;;;;;;;;4894707;28;20457;-67
2023/08/08 05:43:21;;;;;;;5.10;1.23;;;;;;;;;;4894091;28;20446;-66
2023/08/08 05:45:47;;;;;;;0.90;0.90;;;;;;;;;;4894757;28;20793;-66
2023/08/08 05:48:13;;;;;;;0.90;0.90;;;;;;;;;;4892886;28;20493;-67
2023/08/08 05:50:39;;;;;;;1.00;1.00;;;;;;;;;;4893849;29;20433;-66
2023/08/08 05:53:05;;;;;;;0.80;0.80;;;;;;;;;;4893834;28;20434;-66
2023/08/08 05:55:31;;;;;;;1.03;1.03;;;;;;;;;;4893479;28;20451;-66
2023/08/08 05:57:57;;;;;;;1.20;0.93;;;;;;;;;;4893797;29;20445;-68
2023/08/08 06:00:23;;;;;;;1.17;1.10;;;;;;;;;;4893947;28;20508;-66
2023/08/08 06:02:49;;;;;;;2.97;0.80;;;;;;;;;;4892310;29;20449;-67
2023/08/08 06:05:17;;;;;;;0.73;0.73;;;;;;;;;;4894795;29;20418;-68
2023/08/08 06:07:43;;;;;;;0.90;0.90;;;;;;;;;;4894537;28;20485;-67
2023/08/08 06:10:09;;;;;;;0.80;0.80;;;;;;;;;;4894680;28;20770;-67
2023/08/08 06:12:35;;;;;;;2.67;2.47;;;;;;;;;;4889623;28;20528;-69
2023/08/08 06:15:01;;;;;;;1.80;0.83;;;;;;;;;;4894343;28;20921;-70
2023/08/08 06:17:27;;;;;;;1.80;1.20;;;;;;;;;;4893671;28;20473;-70
2023/08/08 06:19:54;;;;;;;0.90;0.90;;;;;;;;;;4894696;29;20560;-69
2023/08/08 06:22:20;;;;;;;0.93;0.93;;;;;;;;;;4892571;28;20948;-66
2023/08/08 06:24:46;;;;;;;2.27;1.07;;;;;;;;;;4893911;28;20434;-67
2023/08/08 06:27:13;;;;;;;3.50;1.30;;;;;;;;;;4893521;28;20700;-66
2023/08/08 06:29:39;;;;;;;1.10;1.10;;;;;;;;;;4894511;28;20433;-67
2023/08/08 06:32:05;;;;;;;0.90;0.90;;;;;;;;;;4894143;28;20430;-66
2023/08/08 06:34:31;;;;;;;3.10;1.63;;;;;;;;;;4893551;29;20772;-67
2023/08/08 06:36:57;;;;;;;2.30;0.83;;;;;;;;;;4893186;28;20441;-67
2023/08/08 06:39:23;;;;;;;4.73;1.30;;;;;;;;;;4894000;28;20433;-67
2023/08/08 06:41:49;;;;;;;3.43;0.90;;;;;;;;;;4894272;28;20506;-68
2023/08/08 06:44:15;;;;;;;1.23;1.13;;;;;;;;;;4893108;28;20468;-67
2023/08/08 06:46:41;;;;;;;2.13;1.17;;;;;;;;;;4892515;28;20469;-66
2023/08/08 06:49:08;;;;;;;6.53;1.30;;;;;;;;;;4893366;28;20941;-68
2023/08/08 06:51:35;;;;;;;1.10;1.00;;;;;;;;;;4888916;28;20442;-66
2023/08/08 06:54:01;;;;;;;0.90;0.90;;;;;;;;;;4886857;28;20442;-66
2023/08/08 06:56:27;;;;;;;1.33;1.23;;;;;;;;;;4892838;28;20436;-66
2023/08/08 06:58:53;;;;;;;1.40;1.30;;;;;;;;;;4901772;29;20543;-66
2023/08/08 07:01:20;;;;;;;0.83;0.83;;;;;;;;;;4915731;29;20463;-68
2023/08/08 07:03:46;;;;;;;3.33;1.10;;;;;;;;;;4904268;29;20422;-67
2023/08/08 07:06:12;;;;;;;4.33;1.00;;;;;;;;;;4896512;29;20788;-66
2023/08/08 07:08:42;;;;;;;1.13;1.10;;;;;;;;;;4895679;29;20485;-68
2023/08/08 07:11:08;;;;;;;1.00;1.00;;;;;;;;;;4896422;28;20444;-66
2023/08/08 07:13:34;;;;;;;4.83;3.10;;;;;;;;;;4896896;29;20430;-66
2023/08/08 07:16:00;;;;;;;2.87;1.00;;;;;;;;;;4896483;28;20471;-66
2023/08/08 07:18:26;;;;;;;2.00;1.23;;;;;;;;;;4891763;28;20517;-67
2023/08/08 07:20:52;;;;;;;3.50;1.33;;;;;;;;;;4896564;29;20465;-66
2023/08/08 07:23:18;;;;;;;5.43;1.20;;;;;;;;;;4895549;29;20452;-67
2023/08/08 07:25:46;;;;;;;2.67;1.00;;;;;;;;;;4895092;28;20430;-66
2023/08/08 07:28:14;;;;;;;0.90;0.90;;;;;;;;;;4895958;28;21047;-65
2023/08/08 07:30:40;;;;;;;1.23;1.23;;;;;;;;;;4896725;28;20992;-66
2023/08/08 07:33:08;;;;;;;1.17;1.17;;;;;;;;;;4896328;28;20488;-65
2023/08/08 07:35:34;;;;;;;0.90;0.90;;;;;;;;;;4896594;28;20437;-65
2023/08/08 07:38:00;;;;;;;2.40;0.87;;;;;;;;;;4896235;29;20426;-66
2023/08/08 07:40:26;;;;;;;9.13;1.00;;;;;;;;;;4896723;28;20438;-65
2023/08/08 07:42:52;;;;;;;7.10;1.10;;;;;;;;;;4896019;28;20814;-65
2023/08/08 07:45:18;;;;;;;1.03;1.03;;;;;;;;;;4896077;28;20865;-66
2023/08/08 07:47:44;;;;;;;0.70;0.70;;;;;;;;;;4896400;28;20492;-65
2023/08/08 07:50:10;;;;;;;0.70;0.70;;;;;;;;;;4896493;28;20426;-65
2023/08/08 07:52:36;;;;;;;3.13;1.10;;;;;;;;;;4895294;28;20442;-65
2023/08/08 07:55:03;;;;;;;1.10;1.10;;;;;;;;;;4896496;29;20452;-65
2023/08/08 07:57:34;;;;;;;2.63;0.83;;;;;;;;;;4895890;28;20437;-65
2023/08/08 08:00:06;;;;;;;0.70;0.70;;;;;;;;;;4895251;28;20442;-66
2023/08/08 08:02:32;;;;;;;3.23;1.03;;;;;;;;;;4894415;28;20429;-66
2023/08/08 08:04:58;;;;;;;7.13;1.17;;;;;;;;;;4896582;28;20429;-65
2023/08/08 08:07:24;;;;;;;3.23;1.20;;;;;;;;;;4896373;28;20465;-66
2023/08/08 08:09:50;;;;;;;4.70;1.00;;;;;;;;;;4894897;28;20974;-65
2023/08/08 08:12:16;;;;;;;1.80;1.00;;;;;;;;;;4896330;28;20503;-66
2023/08/08 08:14:42;;;;;;;2.20;1.40;;;;;;;;;;4895052;29;20445;-66
2023/08/08 08:17:08;;;;;;;0.90;0.90;;;;;;;;;;4896112;28;20433;-65
2023/08/08 08:19:34;;;;;;;1.17;1.10;;;;;;;;;;4896001;29;20520;-65
2023/08/08 08:22:00;;;;;;;8.63;1.30;;;;;;;;;;4895979;29;20485;-66
2023/08/08 08:24:26;;;;;;;1.47;1.30;;;;;;;;;;4895699;28;20422;-66
2023/08/08 08:26:52;;;;;;;3.37;2.10;;;;;;;;;;4896275;28;21075;-65
2023/08/08 08:29:18;;;;;;;0.90;0.90;;;;;;;;;;4896273;29;20452;-65
2023/08/08 08:31:44;;;;;;;18.57;1.10;;;;;;;;;;4895992;28;20914;-65
2023/08/08 08:34:10;;;;;;;3.20;0.80;;;;;;;;;;4895567;28;20477;-65
2023/08/08 08:36:36;;;;;;;0.83;0.83;;;;;;;;;;4894968;28;20925;-65
2023/08/08 08:39:03;;;;;;;10.13;0.83;;;;;;;;;;4895300;28;20433;-65
2023/08/08 08:41:31;;;;;;;0.80;0.80;;;;;;;;;;4895875;29;20414;-67
2023/08/08 08:43:57;;;;;;;0.87;0.73;;;;;;;;;;4895538;28;20452;-65
2023/08/08 08:46:25;;;;;;;0.63;0.63;;;;;;;;;;4896069;28;20513;-66
2023/08/08 08:48:51;;;;;;;0.73;0.70;;;;;;;;;;4895656;28;20495;-66
2023/08/08 08:51:18;;;;;;;0.70;0.70;;;;;;;;;;4895858;29;20470;-66
2023/08/08 08:53:46;;;;;;;0.70;0.70;;;;;;;;;;4894638;28;20969;-65
2023/08/08 08:56:12;;;;;;;0.80;0.80;;;;;;;;;;4895964;28;20422;-66
2023/08/08 08:58:38;;;;;;;2.83;0.80;;;;;;;;;;4895532;28;20942;-66
2023/08/08 09:01:04;;;;;;;3.03;0.83;;;;;;;;;;4895748;28;20518;-66
2023/08/08 09:03:30;;;;;;;0.87;0.87;;;;;;;;;;4894181;28;20435;-66
2023/08/08 09:05:56;;;;;;;0.70;0.70;;;;;;;;;;4895640;28;21000;-66
2023/08/08 09:08:23;;;;;;;4.10;0.90;;;;;;;;;;4895246;28;20493;-65
2023/08/08 09:10:50;;;;;;;5.70;0.70;;;;;;;;;;4895413;28;20462;-66
2023/08/08 09:13:16;;;;;;;4.37;0.70;;;;;;;;;;4895452;28;20453;-66
2023/08/08 09:15:42;;;;;;;2.30;0.80;;;;;;;;;;4895303;28;20421;-66
2023/08/08 09:18:08;;;;;;;1.13;1.03;;;;;;;;;;4895338;29;20931;-66
2023/08/08 09:20:34;;;;;;;1.10;1.10;;;;;;;;;;4894829;29;20429;-66
2023/08/08 09:23:00;;;;;;;2.10;1.13;;;;;;;;;;4894880;28;20995;-66
2023/08/08 09:25:26;;;;;;;0.70;0.70;;;;;;;;;;4895402;28;20433;-66
2023/08/08 09:27:56;;;;;;;2.10;0.90;;;;;;;;;;4895274;28;20493;-66
2023/08/08 09:30:22;;;;;;;3.70;1.13;;;;;;;;;;4895064;28;20495;-66
2023/08/08 09:32:48;;;;;;;0.83;0.77;;;;;;;;;;4894777;28;20773;-66
2023/08/08 09:35:14;;;;;;;1.03;1.03;;;;;;;;;;4895447;28;20944;-66
2023/08/08 09:37:40;;;;;;;0.80;0.80;;;;;;;;;;4893722;29;20433;-67
2023/08/08 09:40:07;;;;;;;0.93;0.70;;;;;;;;;;4895238;28;21099;-66
2023/08/08 09:42:33;;;;;;;2.53;0.77;;;;;;;;;;4894565;28;20441;-66
2023/08/08 09:44:59;;;;;;;0.80;0.80;;;;;;;;;;4895292;28;20500;-66
2023/08/08 09:47:31;;;;;;;1.77;0.97;;;;;;;;;;4894579;28;20484;-67
2023/08/08 09:50:00;;;;;;;0.90;0.90;;;;;;;;;;4895232;28;20422;-66
2023/08/08 09:52:28;;;;;;;0.73;0.70;;;;;;;;;;4894268;29;20934;-65
2023/08/08 09:54:54;;;;;;;1.10;1.03;;;;;;;;;;4895113;28;20453;-67
2023/08/08 09:57:21;;;;;;;7.20;0.80;;;;;;;;;;4890358;28;20903;-66
2023/08/08 09:59:48;;;;;;;0.83;0.80;;;;;;;;;;4894474;29;20441;-66
2023/08/08 10:02:15;;;;;;;0.77;0.77;;;;;;;;;;4894534;28;20529;-66
2023/08/08 10:04:42;;;;;;;0.80;0.80;;;;;;;;;;4894043;29;20766;-66
2023/08/08 10:07:08;;;;;;;1.43;1.10;;;;;;;;;;4893638;28;20548;-65
2023/08/08 10:09:34;;;;;;;1.37;1.37;;;;;;;;;;4893846;28;20848;-66
2023/08/08 10:12:01;;;;;;;2.37;2.17;;;;;;;;;;4893642;29;20483;-66
2023/08/08 10:14:31;;;;;;;1.00;1.00;;;;;;;;;;4893505;28;20477;-67
2023/08/08 10:16:57;;;;;;;0.87;0.87;;;;;;;;;;4894283;29;20421;-66
2023/08/08 10:19:23;;;;;;;0.67;0.67;;;;;;;;;;4894704;28;20444;-66
2023/08/08 10:21:56;;;;;;;1.03;0.90;;;;;;;;;;4894213;28;20505;-66
2023/08/08 10:24:23;;;;;;;3.57;1.30;;;;;;;;;;4893548;28;20645;-66
2023/08/08 10:27:00;;;;;;;3.30;0.50;;;;;;;;;;4894043;28;20868;-65
2023/08/08 10:29:26;;;;;;;1.70;0.90;;;;;;;;;;4894642;28;20468;-66
2023/08/08 10:32:05;;;;;;;1.03;1.03;;;;;;;;;;4894090;28;20453;-65
2023/08/08 10:34:42;;;;;;;5.67;1.30;;;;;;;;;;4897342;28;20421;-65
2023/08/08 10:37:15;;;;;;;2.53;1.60;;;;;;;;;;4897118;29;20429;-60
2023/08/08 10:40:00;;;;;;;1.10;1.10;;;;;;;;;;4897738;28;20422;-66
2023/08/08 10:42:30;;;;;;;1.03;0.63;;;;;;;;;;4896337;28;20536;-66
2023/08/08 10:44:58;;;;;;;1.40;1.13;;;;;;;;;;4896942;28;20441;-66
2023/08/08 10:47:24;;;;;;;1.53;1.53;;;;;;;;;;4897207;29;20959;-66
2023/08/08 10:49:59;;;;;;;2.20;1.30;;;;;;;;;;4897769;28;21017;-66
2023/08/08 10:52:25;;;;;;;1.13;1.13;;;;;;;;;;4895619;28;20798;-66
2023/08/08 10:54:54;;;;;;;1.37;1.37;;;;;;;;;;4897217;28;20425;-66
2023/08/08 10:57:21;;;;;;;2.83;2.73;;;;;;;;;;4897110;28;20430;-66
2023/08/08 10:59:47;;;;;;;3.40;1.90;;;;;;;;;;4897562;28;20422;-66
2023/08/08 11:02:13;;;;;;;1.00;1.00;;;;;;;;;;4896352;28;20846;-66
2023/08/08 11:04:39;;;;;;;0.80;0.80;;;;;;;;;;4890997;28;20598;-66
2023/08/08 11:07:06;;;;;;;0.73;0.73;;;;;;;;;;4895114;29;20520;-66
2023/08/08 11:09:32;;;;;;;0.93;0.93;;;;;;;;;;4896990;28;20840;-66
2023/08/08 11:11:58;;;;;;;2.10;0.70;;;;;;;;;;4896974;28;20468;-66
2023/08/08 11:14:24;;;;;;;0.60;0.60;;;;;;;;;;4896645;28;20934;-65
2023/08/08 11:16:50;;;;;;;1.57;1.23;;;;;;;;;;4896478;28;20788;-67
2023/08/08 11:19:18;;;;;;;0.63;0.63;;;;;;;;;;4896608;28;20508;-66
2023/08/08 11:21:45;;;;;;;0.70;0.70;;;;;;;;;;4895700;28;20426;-68
2023/08/08 11:24:11;;;;;;;0.97;0.97;;;;;;;;;;4895555;28;20921;-69
2023/08/08 11:26:38;;;;;;;1.07;1.07;;;;;;;;;;4910780;28;20504;-68
2023/08/08 11:29:08;;;;;;;2.50;1.03;;;;;;;;;;4896701;28;20438;-66
2023/08/08 11:31:34;;;;;;;0.80;0.80;;;;;;;;;;4896516;28;20426;-65
2023/08/08 11:34:00;;;;;;;0.70;0.70;;;;;;;;;;4896180;29;20525;-66
2023/08/08 11:36:30;;;;;;;1.67;1.10;;;;;;;;;;4896018;29;20454;-68
2023/08/08 11:38:58;;;;;;;0.80;0.80;;;;;;;;;;4895615;29;20441;-67
2023/08/08 11:41:25;;;;;;;0.57;0.57;;;;;;;;;;4898572;29;20506;-65
2023/08/08 11:43:52;;;;;;;0.60;0.60;;;;;;;;;;4901682;28;20477;-66
2023/08/08 11:46:18;;;;;;;0.77;0.73;;;;;;;;;;4895573;28;20532;-66
2023/08/08 11:48:46;;;;;;;1.10;1.10;;;;;;;;;;4895174;28;20485;-66
2023/08/08 11:51:14;;;;;;;0.90;0.90;;;;;;;;;;4896278;28;20422;-66
2023/08/08 11:53:49;;;;;;;1.60;0.80;;;;;;;;;;4895628;28;20441;-67
2023/08/08 11:56:15;;;;;;;1.13;0.80;;;;;;;;;;4895883;29;20494;-70
2023/08/08 11:58:41;;;;;;;0.87;0.87;;;;;;;;;;4895841;28;20490;-66
2023/08/08 12:01:08;;;;;;;2.30;1.77;;;;;;;;;;4895881;28;20489;-70
2023/08/08 12:03:38;;;;;;;3.43;1.00;;;;;;;;;;4896023;29;20516;-67
2023/08/08 12:06:11;;;;;;;0.90;0.90;;;;;;;;;;4896244;28;20517;-67
2023/08/08 12:08:37;;;;;;;2.60;0.90;;;;;;;;;;4895935;28;20527;-67
2023/08/08 12:11:05;;;;;;;2.07;1.53;;;;;;;;;;4895726;28;20429;-67
2023/08/08 12:13:31;;;;;;;0.97;0.83;;;;;;;;;;4895492;29;20488;-70
2023/08/08 12:15:59;;;;;;;2.13;0.97;;;;;;;;;;4895830;28;20504;-67
2023/08/08 12:18:25;;;;;;;5.70;1.00;;;;;;;;;;4895595;28;20477;-69
2023/08/08 12:20:51;;;;;;;0.80;0.80;;;;;;;;;;4894449;28;20429;-66
2023/08/08 12:23:17;;;;;;;0.70;0.70;;;;;;;;;;4894752;28;20430;-65
2023/08/08 12:25:43;;;;;;;0.87;0.87;;;;;;;;;;4894670;28;20430;-66
2023/08/08 12:28:10;;;;;;;1.13;1.10;;;;;;;;;;4892240;28;20571;-71
2023/08/08 12:30:36;;;;;;;0.80;0.80;;;;;;;;;;4895251;28;20472;-70
2023/08/08 12:33:02;;;;;;;0.70;0.70;;;;;;;;;;4895013;29;20980;-66
2023/08/08 12:35:28;;;;;;;0.90;0.90;;;;;;;;;;4895594;29;20426;-66
2023/08/08 12:37:54;;;;;;;0.90;0.90;;;;;;;;;;4894160;29;20610;-66
2023/08/08 12:40:20;;;;;;;0.80;0.80;;;;;;;;;;4894689;28;20433;-66
2023/08/08 12:42:46;;;;;;;0.67;0.67;;;;;;;;;;4894333;28;20442;-66
2023/08/08 12:45:12;;;;;;;3.80;1.30;;;;;;;;;;4895788;28;20948;-71
2023/08/08 12:47:38;;;;;;;1.33;0.83;;;;;;;;;;4895381;29;20579;-66
2023/08/08 12:50:04;;;;;;;1.07;0.70;;;;;;;;;;4895769;29;20425;-66
2023/08/08 12:52:30;;;;;;;1.17;0.70;;;;;;;;;;4894738;29;20466;-66
2023/08/08 12:54:56;;;;;;;0.67;0.67;;;;;;;;;;4895135;29;20515;-66
2023/08/08 12:57:22;;;;;;;5.60;0.70;;;;;;;;;;4895212;29;20429;-67
2023/08/08 12:59:48;;;;;;;0.80;0.80;;;;;;;;;;4895102;29;20854;-67
2023/08/08 13:02:14;;;;;;;1.17;1.00;;;;;;;;;;4895228;29;20521;-66
2023/08/08 13:04:40;;;;;;;1.07;0.80;;;;;;;;;;4895434;29;20501;-66
2023/08/08 13:07:07;;;;;;;1.07;1.07;;;;;;;;;;4895348;29;20560;-66
2023/08/08 13:09:33;;;;;;;2.20;0.90;;;;;;;;;;4895311;29;20434;-66
2023/08/08 13:11:59;;;;;;;0.77;0.77;;;;;;;;;;4895712;29;20477;-69
2023/08/08 13:14:25;;;;;;;1.43;1.33;;;;;;;;;;4895353;29;20468;-72
2023/08/08 13:16:51;;;;;;;6.90;1.20;;;;;;;;;;4895616;29;20456;-66
2023/08/08 13:19:21;;;;;;;1.00;1.00;;;;;;;;;;4895358;29;20481;-66
2023/08/08 13:21:47;;;;;;;1.07;0.97;;;;;;;;;;4895131;29;20540;-65
2023/08/08 13:24:13;;;;;;;1.03;1.03;;;;;;;;;;4895171;29;21085;-66
2023/08/08 13:26:39;;;;;;;1.27;1.27;;;;;;;;;;4895421;29;20426;-66
2023/08/08 13:29:05;;;;;;;1.03;1.03;;;;;;;;;;4895510;29;20428;-66
2023/08/08 13:31:31;;;;;;;1.07;1.07;;;;;;;;;;4895357;29;20434;-66
2023/08/08 13:33:57;;;;;;;1.10;0.80;;;;;;;;;;4895211;29;20910;-66
2023/08/08 13:36:23;;;;;;;1.80;0.90;;;;;;;;;;4895483;29;20462;-66
2023/08/08 13:38:49;;;;;;;1.43;0.80;;;;;;;;;;4895079;29;20465;-65
2023/08/08 13:41:15;;;;;;;0.80;0.80;;;;;;;;;;4895276;29;20492;-66
2023/08/08 13:43:41;;;;;;;1.10;1.10;;;;;;;;;;4894886;29;20422;-66
2023/08/08 13:46:09;;;;;;;0.90;0.90;;;;;;;;;;4895238;29;20942;-66
2023/08/08 13:48:35;;;;;;;1.33;1.13;;;;;;;;;;4895104;29;20489;-66
2023/08/08 13:51:01;;;;;;;1.23;1.23;;;;;;;;;;4895309;29;20488;-66
2023/08/08 13:53:27;;;;;;;1.13;1.13;;;;;;;;;;4894400;29;20437;-65
2023/08/08 13:55:53;;;;;;;3.07;0.87;;;;;;;;;;4895005;29;20429;-65
2023/08/08 13:58:21;;;;;;;3.37;0.87;;;;;;;;;;4895080;29;20434;-65
2023/08/08 14:00:48;;;;;;;1.07;1.07;;;;;;;;;;4894929;29;20465;-65
2023/08/08 14:03:14;;;;;;;0.70;0.70;;;;;;;;;;4894749;29;20922;-66
2023/08/08 14:05:40;;;;;;;0.83;0.83;;;;;;;;;;4895235;29;20425;-65
2023/08/08 14:08:06;;;;;;;1.10;1.07;;;;;;;;;;4897940;29;20934;-66
2023/08/08 14:10:32;;;;;;;1.60;1.50;;;;;;;;;;4898318;29;20421;-66
2023/08/08 14:12:58;;;;;;;2.57;0.80;;;;;;;;;;4897909;29;20831;-65
2023/08/08 14:15:24;;;;;;;0.60;0.60;;;;;;;;;;4898269;29;20418;-66
2023/08/08 14:17:50;;;;;;;0.80;0.80;;;;;;;;;;4897951;29;20481;-65
2023/08/08 14:20:17;;;;;;;1.30;1.07;;;;;;;;;;4898105;29;20560;-65
2023/08/08 14:22:46;;;;;;;6.47;1.37;;;;;;;;;;4897497;29;20910;-65
2023/08/08 14:25:12;;;;;;;2.10;1.00;;;;;;;;;;4898042;29;20424;-65
2023/08/08 14:27:38;;;;;;;1.23;1.03;;;;;;;;;;4897895;29;20469;-66
2023/08/08 14:30:04;;;;;;;0.90;0.90;;;;;;;;;;4898018;29;20760;-66
2023/08/08 14:32:30;;;;;;;3.07;2.87;;;;;;;;;;4897660;29;20501;-65
2023/08/08 14:34:56;;;;;;;1.80;1.40;;;;;;;;;;4898029;29;20422;-66
2023/08/08 14:37:22;;;;;;;1.20;1.20;;;;;;;;;;4897655;29;20476;-66
2023/08/08 14:39:48;;;;;;;3.40;1.00;;;;;;;;;;4897921;29;20825;-66